sensor_id;sensor_type;location;lat;lon;timestamp;temperature;humidity
31991;DHT22;18508;49.386;8.370;2022-11-12T00:01:44;7.30;99.90
31991;DHT22;18508;49.386;8.370;2022-11-12T00:04:12;7.30;99.90
31991;DHT22;18508;49.386;8.370;2022-11-12T00:06:41;7.30;99.90
31991;DHT22;18508;49.386;8.370;2022-11-12T00:09:10;7.30;99.90
31991;DHT22;18508;49.386;8.370;2022-11-12T00:11:42;7.30;99.90
31991;DHT22;18508;49.386;8.370;2022-11-12T00:14:15;7.30;99.90
31991;DHT22;18508;49.386;8.370;2022-11-12T00:16:44;7.30;99.90
31991;DHT22;18508;49.386;8.370;2022-11-12T00:19:13;7.30;99.90
31991;DHT22;18508;49.386;8.370;2022-11-12T00:21:41;7.30;99.90
31991;DHT22;18508;49.386;8.370;2022-11-12T00:24:09;7.30;99.90
31991;DHT22;18508;49.386;8.370;2022-11-12T00:26:37;7.40;99.90
31991;DHT22;18508;49.386;8.370;2022-11-12T00:29:09;7.30;99.90
31991;DHT22;18508;49.386;8.370;2022-11-12T00:31:38;7.30;99.90
31991;DHT22;18508;49.386;8.370;2022-11-12T00:34:12;7.30;99.90
31991;DHT22;18508;49.386;8.370;2022-11-12T00:37:11;7.30;99.90
31991;DHT22;18508;49.386;8.370;2022-11-12T00:39:49;7.30;99.90
31991;DHT22;18508;49.386;8.370;2022-11-12T00:42:25;7.30;99.90
31991;DHT22;18508;49.386;8.370;2022-11-12T00:45:27;7.20;99.90
31991;DHT22;18508;49.386;8.370;2022-11-12T00:48:01;7.20;99.90
31991;DHT22;18508;49.386;8.370;2022-11-12T00:50:40;7.20;99.90
31991;DHT22;18508;49.386;8.370;2022-11-12T00:53:17;7.20;99.90
31991;DHT22;18508;49.386;8.370;2022-11-12T00:59:09;7.20;99.90
31991;DHT22;18508;49.386;8.370;2022-11-12T01:01:52;7.30;99.90
31991;DHT22;18508;49.386;8.370;2022-11-12T01:04:45;7.20;99.90
31991;DHT22;18508;49.386;8.370;2022-11-12T01:07:24;7.20;99.90
31991;DHT22;18508;49.386;8.370;2022-11-12T01:10:12;7.10;99.90
31991;DHT22;18508;49.386;8.370;2022-11-12T01:12:50;7.10;99.90
31991;DHT22;18508;49.386;8.370;2022-11-12T01:15:30;7.10;99.90
31991;DHT22;18508;49.386;8.370;2022-11-12T01:18:20;7.20;99.90
31991;DHT22;18508;49.386;8.370;2022-11-12T01:20:54;7.20;99.90
31991;DHT22;18508;49.386;8.370;2022-11-12T01:23:34;7.20;99.90
31991;DHT22;18508;49.386;8.370;2022-11-12T01:26:12;7.20;99.90
31991;DHT22;18508;49.386;8.370;2022-11-12T01:28:47;7.30;99.90
31991;DHT22;18508;49.386;8.370;2022-11-12T01:31:31;7.30;99.90
31991;DHT22;18508;49.386;8.370;2022-11-12T01:34:17;7.30;99.90
31991;DHT22;18508;49.386;8.370;2022-11-12T01:36:46;7.40;99.90
31991;DHT22;18508;49.386;8.370;2022-11-12T01:39:18;7.40;99.90
31991;DHT22;18508;49.386;8.370;2022-11-12T01:41:57;7.40;99.90
31991;DHT22;18508;49.386;8.370;2022-11-12T01:44:45;7.40;99.90
31991;DHT22;18508;49.386;8.370;2022-11-12T01:47:22;7.40;99.90
31991;DHT22;18508;49.386;8.370;2022-11-12T01:50:13;7.40;99.90
31991;DHT22;18508;49.386;8.370;2022-11-12T01:52:47;7.40;99.90
31991;DHT22;18508;49.386;8.370;2022-11-12T01:55:30;7.40;99.90
31991;DHT22;18508;49.386;8.370;2022-11-12T01:58:12;7.50;99.90
31991;DHT22;18508;49.386;8.370;2022-11-12T02:00:54;7.50;99.90
31991;DHT22;18508;49.386;8.370;2022-11-12T02:03:34;7.50;99.90
31991;DHT22;18508;49.386;8.370;2022-11-12T02:06:21;7.30;99.90
31991;DHT22;18508;49.386;8.370;2022-11-12T02:09:09;7.20;99.90
31991;DHT22;18508;49.386;8.370;2022-11-12T02:11:50;7.20;99.90
31991;DHT22;18508;49.386;8.370;2022-11-12T02:14:34;7.20;99.90
31991;DHT22;18508;49.386;8.370;2022-11-12T02:17:04;7.10;99.90
31991;DHT22;18508;49.386;8.370;2022-11-12T02:19:44;7.10;99.90
31991;DHT22;18508;49.386;8.370;2022-11-12T02:22:25;7.10;99.90
31991;DHT22;18508;49.386;8.370;2022-11-12T02:25:06;7.10;99.90
31991;DHT22;18508;49.386;8.370;2022-11-12T02:27:46;7.10;99.90
31991;DHT22;18508;49.386;8.370;2022-11-12T02:30:38;7.00;99.90
31991;DHT22;18508;49.386;8.370;2022-11-12T02:33:19;7.00;99.90
31991;DHT22;18508;49.386;8.370;2022-11-12T02:35:52;7.10;99.90
31991;DHT22;18508;49.386;8.370;2022-11-12T02:38:29;7.10;99.90
31991;DHT22;18508;49.386;8.370;2022-11-12T02:41:09;7.10;99.90
31991;DHT22;18508;49.386;8.370;2022-11-12T02:43:46;7.10;99.90
31991;DHT22;18508;49.386;8.370;2022-11-12T02:46:22;7.10;99.90
31991;DHT22;18508;49.386;8.370;2022-11-12T02:48:58;7.20;99.90
31991;DHT22;18508;49.386;8.370;2022-11-12T02:54:21;7.20;99.90
31991;DHT22;18508;49.386;8.370;2022-11-12T02:57:05;7.20;99.90
31991;DHT22;18508;49.386;8.370;2022-11-12T02:59:48;7.20;99.90
31991;DHT22;18508;49.386;8.370;2022-11-12T03:02:23;7.20;99.90
31991;DHT22;18508;49.386;8.370;2022-11-12T03:04:54;7.30;99.90
31991;DHT22;18508;49.386;8.370;2022-11-12T03:07:32;7.10;99.90
31991;DHT22;18508;49.386;8.370;2022-11-12T03:10:14;7.20;99.90
31991;DHT22;18508;49.386;8.370;2022-11-12T03:12:44;7.20;99.90
31991;DHT22;18508;49.386;8.370;2022-11-12T03:15:17;7.20;99.90
31991;DHT22;18508;49.386;8.370;2022-11-12T03:18:01;7.20;99.90
31991;DHT22;18508;49.386;8.370;2022-11-12T03:20:33;7.20;99.90
31991;DHT22;18508;49.386;8.370;2022-11-12T03:23:15;7.20;99.90
31991;DHT22;18508;49.386;8.370;2022-11-12T03:26:01;7.20;99.90
31991;DHT22;18508;49.386;8.370;2022-11-12T03:28:42;7.20;99.90
31991;DHT22;18508;49.386;8.370;2022-11-12T03:32:05;7.30;99.90
31991;DHT22;18508;49.386;8.370;2022-11-12T03:34:35;7.30;99.90
31991;DHT22;18508;49.386;8.370;2022-11-12T03:37:05;7.30;99.90
31991;DHT22;18508;49.386;8.370;2022-11-12T03:39:40;7.30;99.90
31991;DHT22;18508;49.386;8.370;2022-11-12T03:42:17;7.30;99.90
31991;DHT22;18508;49.386;8.370;2022-11-12T03:44:46;7.40;99.90
31991;DHT22;18508;49.386;8.370;2022-11-12T03:47:20;7.30;99.90
31991;DHT22;18508;49.386;8.370;2022-11-12T03:49:49;7.30;99.90
31991;DHT22;18508;49.386;8.370;2022-11-12T03:52:18;7.30;99.90
31991;DHT22;18508;49.386;8.370;2022-11-12T03:54:48;7.30;99.90
31991;DHT22;18508;49.386;8.370;2022-11-12T03:57:25;7.20;99.90
31991;DHT22;18508;49.386;8.370;2022-11-12T03:59:59;7.30;99.90
31991;DHT22;18508;49.386;8.370;2022-11-12T04:02:36;7.30;99.90
31991;DHT22;18508;49.386;8.370;2022-11-12T04:05:06;7.30;99.90
31991;DHT22;18508;49.386;8.370;2022-11-12T04:07:58;7.30;99.90
31991;DHT22;18508;49.386;8.370;2022-11-12T04:10:48;7.30;99.90
31991;DHT22;18508;49.386;8.370;2022-11-12T04:13:18;7.30;99.90
31991;DHT22;18508;49.386;8.370;2022-11-12T04:15:57;7.40;99.90
31991;DHT22;18508;49.386;8.370;2022-11-12T04:18:47;7.40;99.90
31991;DHT22;18508;49.386;8.370;2022-11-12T04:21:38;7.40;99.90
31991;DHT22;18508;49.386;8.370;2022-11-12T04:24:25;7.40;99.90
31991;DHT22;18508;49.386;8.370;2022-11-12T04:27:17;7.40;99.90
31991;DHT22;18508;49.386;8.370;2022-11-12T04:29:53;7.50;99.90
31991;DHT22;18508;49.386;8.370;2022-11-12T04:32:45;7.50;99.90
31991;DHT22;18508;49.386;8.370;2022-11-12T04:35:20;7.50;99.90
31991;DHT22;18508;49.386;8.370;2022-11-12T04:37:53;7.60;99.90
31991;DHT22;18508;49.386;8.370;2022-11-12T04:40:30;7.60;99.90
31991;DHT22;18508;49.386;8.370;2022-11-12T04:43:21;7.60;99.90
31991;DHT22;18508;49.386;8.370;2022-11-12T04:46:09;7.60;99.90
31991;DHT22;18508;49.386;8.370;2022-11-12T04:48:45;7.60;99.90
31991;DHT22;18508;49.386;8.370;2022-11-12T04:51:21;7.50;99.90
31991;DHT22;18508;49.386;8.370;2022-11-12T04:54:11;7.60;99.90
31991;DHT22;18508;49.386;8.370;2022-11-12T04:56:43;7.50;99.90
31991;DHT22;18508;49.386;8.370;2022-11-12T04:59:18;7.50;99.90
31991;DHT22;18508;49.386;8.370;2022-11-12T05:02:07;7.60;99.90
31991;DHT22;18508;49.386;8.370;2022-11-12T05:04:36;7.60;99.90
31991;DHT22;18508;49.386;8.370;2022-11-12T05:07:09;7.60;99.90
31991;DHT22;18508;49.386;8.370;2022-11-12T05:09:40;7.70;99.90
31991;DHT22;18508;49.386;8.370;2022-11-12T05:12:18;7.60;99.90
31991;DHT22;18508;49.386;8.370;2022-11-12T05:14:50;7.70;99.90
31991;DHT22;18508;49.386;8.370;2022-11-12T05:17:28;7.70;99.90
31991;DHT22;18508;49.386;8.370;2022-11-12T05:20:00;7.70;99.90
31991;DHT22;18508;49.386;8.370;2022-11-12T05:22:34;7.70;99.90
31991;DHT22;18508;49.386;8.370;2022-11-12T05:25:25;7.70;99.90
31991;DHT22;18508;49.386;8.370;2022-11-12T05:28:02;7.70;99.90
31991;DHT22;18508;49.386;8.370;2022-11-12T05:30:42;7.70;99.90
31991;DHT22;18508;49.386;8.370;2022-11-12T05:33:24;7.70;99.90
31991;DHT22;18508;49.386;8.370;2022-11-12T05:35:54;7.70;99.90
31991;DHT22;18508;49.386;8.370;2022-11-12T05:38:24;7.70;99.90
31991;DHT22;18508;49.386;8.370;2022-11-12T05:40:53;7.70;99.90
31991;DHT22;18508;49.386;8.370;2022-11-12T05:43:22;7.70;99.90
31991;DHT22;18508;49.386;8.370;2022-11-12T05:45:50;7.70;99.90
31991;DHT22;18508;49.386;8.370;2022-11-12T05:48:22;7.70;99.90
31991;DHT22;18508;49.386;8.370;2022-11-12T05:50:52;7.70;99.90
31991;DHT22;18508;49.386;8.370;2022-11-12T05:53:40;7.70;99.90
31991;DHT22;18508;49.386;8.370;2022-11-12T05:56:09;7.70;99.90
31991;DHT22;18508;49.386;8.370;2022-11-12T05:58:38;7.70;99.90
31991;DHT22;18508;49.386;8.370;2022-11-12T06:01:06;7.70;99.90
31991;DHT22;18508;49.386;8.370;2022-11-12T06:03:44;7.70;99.90
31991;DHT22;18508;49.386;8.370;2022-11-12T06:06:13;7.60;99.90
31991;DHT22;18508;49.386;8.370;2022-11-12T06:08:44;7.60;99.90
31991;DHT22;18508;49.386;8.370;2022-11-12T06:11:12;7.60;99.90
31991;DHT22;18508;49.386;8.370;2022-11-12T06:13:41;7.60;99.90
31991;DHT22;18508;49.386;8.370;2022-11-12T06:16:10;7.60;99.90
31991;DHT22;18508;49.386;8.370;2022-11-12T06:18:38;7.60;99.90
31991;DHT22;18508;49.386;8.370;2022-11-12T06:21:10;7.60;99.90
31991;DHT22;18508;49.386;8.370;2022-11-12T06:23:52;7.60;99.90
31991;DHT22;18508;49.386;8.370;2022-11-12T06:26:21;7.60;99.90
31991;DHT22;18508;49.386;8.370;2022-11-12T06:28:53;7.50;99.90
31991;DHT22;18508;49.386;8.370;2022-11-12T06:31:22;7.60;99.90
31991;DHT22;18508;49.386;8.370;2022-11-12T06:33:59;7.50;99.90
31991;DHT22;18508;49.386;8.370;2022-11-12T06:36:38;7.40;99.90
31991;DHT22;18508;49.386;8.370;2022-11-12T06:39:16;7.50;99.90
31991;DHT22;18508;49.386;8.370;2022-11-12T06:41:48;7.50;99.90
31991;DHT22;18508;49.386;8.370;2022-11-12T06:44:21;7.60;99.90
31991;DHT22;18508;49.386;8.370;2022-11-12T06:46:53;7.50;99.90
31991;DHT22;18508;49.386;8.370;2022-11-12T06:49:23;7.50;99.90
31991;DHT22;18508;49.386;8.370;2022-11-12T06:51:54;7.50;99.90
31991;DHT22;18508;49.386;8.370;2022-11-12T06:54:26;7.60;99.90
31991;DHT22;18508;49.386;8.370;2022-11-12T06:56:58;7.60;99.90
31991;DHT22;18508;49.386;8.370;2022-11-12T06:59:30;7.60;99.90
31991;DHT22;18508;49.386;8.370;2022-11-12T07:02:01;7.60;99.90
31991;DHT22;18508;49.386;8.370;2022-11-12T07:07:10;7.70;99.90
31991;DHT22;18508;49.386;8.370;2022-11-12T07:09:41;7.70;99.90
31991;DHT22;18508;49.386;8.370;2022-11-12T07:12:10;7.70;99.90
31991;DHT22;18508;49.386;8.370;2022-11-12T07:14:40;7.70;99.90
31991;DHT22;18508;49.386;8.370;2022-11-12T07:17:13;7.70;99.90
31991;DHT22;18508;49.386;8.370;2022-11-12T07:19:42;7.60;99.90
31991;DHT22;18508;49.386;8.370;2022-11-12T07:22:20;7.60;99.90
31991;DHT22;18508;49.386;8.370;2022-11-12T07:24:53;7.70;99.90
31991;DHT22;18508;49.386;8.370;2022-11-12T07:27:28;7.70;99.90
31991;DHT22;18508;49.386;8.370;2022-11-12T07:29:57;7.70;99.90
31991;DHT22;18508;49.386;8.370;2022-11-12T07:32:30;7.60;99.90
31991;DHT22;18508;49.386;8.370;2022-11-12T07:35:14;7.70;99.90
31991;DHT22;18508;49.386;8.370;2022-11-12T07:40:27;7.70;99.90
31991;DHT22;18508;49.386;8.370;2022-11-12T07:43:01;7.70;99.90
31991;DHT22;18508;49.386;8.370;2022-11-12T07:45:34;7.70;99.90
31991;DHT22;18508;49.386;8.370;2022-11-12T07:48:04;7.70;99.90
31991;DHT22;18508;49.386;8.370;2022-11-12T07:50:35;7.80;99.90
31991;DHT22;18508;49.386;8.370;2022-11-12T07:53:07;7.80;99.90
31991;DHT22;18508;49.386;8.370;2022-11-12T07:55:38;7.70;99.90
31991;DHT22;18508;49.386;8.370;2022-11-12T07:58:07;7.70;99.90
31991;DHT22;18508;49.386;8.370;2022-11-12T08:00:38;7.70;99.90
31991;DHT22;18508;49.386;8.370;2022-11-12T08:03:07;7.80;99.90
31991;DHT22;18508;49.386;8.370;2022-11-12T08:05:41;7.70;99.90
31991;DHT22;18508;49.386;8.370;2022-11-12T08:08:12;7.70;99.90
31991;DHT22;18508;49.386;8.370;2022-11-12T08:10:48;7.70;99.90
31991;DHT22;18508;49.386;8.370;2022-11-12T08:13:21;7.70;99.90
31991;DHT22;18508;49.386;8.370;2022-11-12T08:18:21;7.80;99.90
31991;DHT22;18508;49.386;8.370;2022-11-12T08:20:59;7.70;99.90
31991;DHT22;18508;49.386;8.370;2022-11-12T08:23:31;7.80;99.90
31991;DHT22;18508;49.386;8.370;2022-11-12T08:26:05;7.70;99.90
31991;DHT22;18508;49.386;8.370;2022-11-12T08:28:53;7.70;99.90
31991;DHT22;18508;49.386;8.370;2022-11-12T08:31:22;7.70;99.90
31991;DHT22;18508;49.386;8.370;2022-11-12T08:34:00;7.60;99.90
31991;DHT22;18508;49.386;8.370;2022-11-12T08:36:45;7.60;99.90
31991;DHT22;18508;49.386;8.370;2022-11-12T08:39:26;7.70;99.90
31991;DHT22;18508;49.386;8.370;2022-11-12T08:41:58;7.80;99.90
31991;DHT22;18508;49.386;8.370;2022-11-12T08:44:29;7.70;99.90
31991;DHT22;18508;49.386;8.370;2022-11-12T08:47:03;7.80;99.90
31991;DHT22;18508;49.386;8.370;2022-11-12T08:49:44;7.80;99.90
31991;DHT22;18508;49.386;8.370;2022-11-12T08:52:14;7.90;99.90
31991;DHT22;18508;49.386;8.370;2022-11-12T08:55:00;7.90;99.90
31991;DHT22;18508;49.386;8.370;2022-11-12T08:57:41;7.90;99.90
31991;DHT22;18508;49.386;8.370;2022-11-12T09:00:14;7.90;99.90
31991;DHT22;18508;49.386;8.370;2022-11-12T09:02:49;8.00;99.90
31991;DHT22;18508;49.386;8.370;2022-11-12T09:07:56;8.10;99.90
31991;DHT22;18508;49.386;8.370;2022-11-12T09:10:27;8.20;99.90
31991;DHT22;18508;49.386;8.370;2022-11-12T09:12:57;8.20;99.90
31991;DHT22;18508;49.386;8.370;2022-11-12T09:15:27;8.20;99.90
31991;DHT22;18508;49.386;8.370;2022-11-12T09:18:11;8.30;99.90
31991;DHT22;18508;49.386;8.370;2022-11-12T09:21:06;8.20;99.90
31991;DHT22;18508;49.386;8.370;2022-11-12T09:23:36;8.20;99.90
31991;DHT22;18508;49.386;8.370;2022-11-12T09:26:15;8.20;99.90
31991;DHT22;18508;49.386;8.370;2022-11-12T09:28:48;8.30;99.90
31991;DHT22;18508;49.386;8.370;2022-11-12T09:31:21;8.30;99.90
31991;DHT22;18508;49.386;8.370;2022-11-12T09:33:55;8.40;99.90
31991;DHT22;18508;49.386;8.370;2022-11-12T09:36:26;8.30;99.90
31991;DHT22;18508;49.386;8.370;2022-11-12T09:39:08;8.40;99.90
31991;DHT22;18508;49.386;8.370;2022-11-12T09:41:38;8.40;99.90
31991;DHT22;18508;49.386;8.370;2022-11-12T09:44:13;8.40;99.90
31991;DHT22;18508;49.386;8.370;2022-11-12T09:46:47;8.50;99.90
31991;DHT22;18508;49.386;8.370;2022-11-12T09:49:22;8.50;99.90
31991;DHT22;18508;49.386;8.370;2022-11-12T09:52:02;8.50;99.90
31991;DHT22;18508;49.386;8.370;2022-11-12T09:54:41;8.50;99.90
31991;DHT22;18508;49.386;8.370;2022-11-12T09:57:13;8.30;99.90
31991;DHT22;18508;49.386;8.370;2022-11-12T09:59:43;8.30;99.90
31991;DHT22;18508;49.386;8.370;2022-11-12T10:02:20;8.30;99.90
31991;DHT22;18508;49.386;8.370;2022-11-12T10:10:57;8.20;99.90
31991;DHT22;18508;49.386;8.370;2022-11-12T10:13:38;8.20;99.90
31991;DHT22;18508;49.386;8.370;2022-11-12T10:19:27;8.20;99.90
31991;DHT22;18508;49.386;8.370;2022-11-12T10:22:07;8.30;99.90
31991;DHT22;18508;49.386;8.370;2022-11-12T10:24:39;8.20;99.90
31991;DHT22;18508;49.386;8.370;2022-11-12T10:27:14;8.10;99.90
31991;DHT22;18508;49.386;8.370;2022-11-12T10:29:50;8.10;99.90
31991;DHT22;18508;49.386;8.370;2022-11-12T10:32:20;8.10;99.90
31991;DHT22;18508;49.386;8.370;2022-11-12T10:34:50;8.10;99.90
31991;DHT22;18508;49.386;8.370;2022-11-12T10:37:22;8.10;99.90
31991;DHT22;18508;49.386;8.370;2022-11-12T10:39:52;8.10;99.90
31991;DHT22;18508;49.386;8.370;2022-11-12T10:42:22;8.20;99.90
31991;DHT22;18508;49.386;8.370;2022-11-12T10:44:50;8.30;99.90
31991;DHT22;18508;49.386;8.370;2022-11-12T10:47:24;8.40;99.90
31991;DHT22;18508;49.386;8.370;2022-11-12T10:52:53;8.40;99.90
31991;DHT22;18508;49.386;8.370;2022-11-12T10:55:23;8.40;99.90
31991;DHT22;18508;49.386;8.370;2022-11-12T10:58:04;8.30;99.90
31991;DHT22;18508;49.386;8.370;2022-11-12T11:00:36;8.30;99.90
31991;DHT22;18508;49.386;8.370;2022-11-12T11:03:24;8.30;99.90
31991;DHT22;18508;49.386;8.370;2022-11-12T11:05:57;8.20;99.90
31991;DHT22;18508;49.386;8.370;2022-11-12T11:08:31;8.20;99.90
31991;DHT22;18508;49.386;8.370;2022-11-12T11:11:20;8.10;99.90
31991;DHT22;18508;49.386;8.370;2022-11-12T11:13:50;8.10;99.90
31991;DHT22;18508;49.386;8.370;2022-11-12T11:16:23;8.20;99.90
31991;DHT22;18508;49.386;8.370;2022-11-12T11:18:54;8.20;99.90
31991;DHT22;18508;49.386;8.370;2022-11-12T11:24:33;8.40;99.90
31991;DHT22;18508;49.386;8.370;2022-11-12T11:27:10;8.40;99.90
31991;DHT22;18508;49.386;8.370;2022-11-12T11:30:01;8.30;99.90
31991;DHT22;18508;49.386;8.370;2022-11-12T11:32:46;8.40;99.90
31991;DHT22;18508;49.386;8.370;2022-11-12T11:35:23;8.40;99.90
31991;DHT22;18508;49.386;8.370;2022-11-12T11:38:05;8.30;99.90
31991;DHT22;18508;49.386;8.370;2022-11-12T11:40:45;8.40;99.90
31991;DHT22;18508;49.386;8.370;2022-11-12T11:43:44;8.40;99.90
31991;DHT22;18508;49.386;8.370;2022-11-12T11:46:35;8.40;99.90
31991;DHT22;18508;49.386;8.370;2022-11-12T11:49:17;8.50;99.90
31991;DHT22;18508;49.386;8.370;2022-11-12T11:51:53;8.50;99.90
31991;DHT22;18508;49.386;8.370;2022-11-12T11:54:43;8.50;99.90
31991;DHT22;18508;49.386;8.370;2022-11-12T11:57:21;8.50;99.90
31991;DHT22;18508;49.386;8.370;2022-11-12T12:00:04;8.70;99.90
31991;DHT22;18508;49.386;8.370;2022-11-12T12:02:48;8.70;99.90
31991;DHT22;18508;49.386;8.370;2022-11-12T12:05:35;8.60;99.90
31991;DHT22;18508;49.386;8.370;2022-11-12T12:08:09;8.70;99.90
31991;DHT22;18508;49.386;8.370;2022-11-12T12:10:51;8.80;99.90
31991;DHT22;18508;49.386;8.370;2022-11-12T12:13:48;8.80;99.90
31991;DHT22;18508;49.386;8.370;2022-11-12T12:16:37;8.80;99.90
31991;DHT22;18508;49.386;8.370;2022-11-12T12:19:19;8.90;99.90
31991;DHT22;18508;49.386;8.370;2022-11-12T12:21:52;8.70;99.90
31991;DHT22;18508;49.386;8.370;2022-11-12T12:24:24;8.70;99.90
31991;DHT22;18508;49.386;8.370;2022-11-12T12:26:59;8.70;99.90
31991;DHT22;18508;49.386;8.370;2022-11-12T12:29:33;8.70;99.90
31991;DHT22;18508;49.386;8.370;2022-11-12T12:32:09;8.70;99.90
31991;DHT22;18508;49.386;8.370;2022-11-12T12:34:41;8.60;99.90
31991;DHT22;18508;49.386;8.370;2022-11-12T12:37:16;8.50;99.90
31991;DHT22;18508;49.386;8.370;2022-11-12T12:39:52;8.50;99.90
31991;DHT22;18508;49.386;8.370;2022-11-12T12:42:26;8.50;99.90
31991;DHT22;18508;49.386;8.370;2022-11-12T12:45:01;8.50;99.90
31991;DHT22;18508;49.386;8.370;2022-11-12T12:47:37;8.50;99.90
31991;DHT22;18508;49.386;8.370;2022-11-12T12:50:12;8.60;99.90
31991;DHT22;18508;49.386;8.370;2022-11-12T12:53:02;8.60;99.90
31991;DHT22;18508;49.386;8.370;2022-11-12T12:55:35;8.60;99.90
31991;DHT22;18508;49.386;8.370;2022-11-12T12:58:18;8.60;99.90
31991;DHT22;18508;49.386;8.370;2022-11-12T13:00:49;8.60;99.90
31991;DHT22;18508;49.386;8.370;2022-11-12T13:03:50;8.70;99.90
31991;DHT22;18508;49.386;8.370;2022-11-12T13:06:25;8.70;99.90
31991;DHT22;18508;49.386;8.370;2022-11-12T13:08:57;8.80;99.90
31991;DHT22;18508;49.386;8.370;2022-11-12T13:11:49;8.70;99.90
31991;DHT22;18508;49.386;8.370;2022-11-12T13:15:10;8.70;99.90
31991;DHT22;18508;49.386;8.370;2022-11-12T13:17:48;9.00;99.90
31991;DHT22;18508;49.386;8.370;2022-11-12T13:20:39;9.00;99.90
31991;DHT22;18508;49.386;8.370;2022-11-12T13:23:45;9.00;99.90
31991;DHT22;18508;49.386;8.370;2022-11-12T13:26:51;8.70;99.90
31991;DHT22;18508;49.386;8.370;2022-11-12T13:29:37;8.70;99.90
31991;DHT22;18508;49.386;8.370;2022-11-12T13:32:34;8.60;99.90
31991;DHT22;18508;49.386;8.370;2022-11-12T13:35:34;8.60;99.90
31991;DHT22;18508;49.386;8.370;2022-11-12T13:38:10;8.50;99.90
31991;DHT22;18508;49.386;8.370;2022-11-12T13:40:43;8.60;99.90
31991;DHT22;18508;49.386;8.370;2022-11-12T13:43:30;8.60;99.90
31991;DHT22;18508;49.386;8.370;2022-11-12T13:46:17;8.70;99.90
31991;DHT22;18508;49.386;8.370;2022-11-12T13:48:56;8.60;99.90
31991;DHT22;18508;49.386;8.370;2022-11-12T13:51:31;8.60;99.90
31991;DHT22;18508;49.386;8.370;2022-11-12T13:54:01;8.60;99.90
31991;DHT22;18508;49.386;8.370;2022-11-12T13:56:51;8.50;99.90
31991;DHT22;18508;49.386;8.370;2022-11-12T13:59:21;8.40;99.90
31991;DHT22;18508;49.386;8.370;2022-11-12T14:01:51;8.50;99.90
31991;DHT22;18508;49.386;8.370;2022-11-12T14:04:24;8.60;99.90
31991;DHT22;18508;49.386;8.370;2022-11-12T14:06:57;8.50;99.90
31991;DHT22;18508;49.386;8.370;2022-11-12T14:09:42;8.60;99.90
31991;DHT22;18508;49.386;8.370;2022-11-12T14:12:28;8.50;99.90
31991;DHT22;18508;49.386;8.370;2022-11-12T14:15:12;8.40;99.90
31991;DHT22;18508;49.386;8.370;2022-11-12T14:17:46;8.30;99.90
31991;DHT22;18508;49.386;8.370;2022-11-12T14:20:26;8.40;99.90
31991;DHT22;18508;49.386;8.370;2022-11-12T14:23:03;8.40;99.90
31991;DHT22;18508;49.386;8.370;2022-11-12T14:25:33;8.40;99.90
31991;DHT22;18508;49.386;8.370;2022-11-12T14:28:24;8.40;99.90
31991;DHT22;18508;49.386;8.370;2022-11-12T14:30:54;8.40;99.90
31991;DHT22;18508;49.386;8.370;2022-11-12T14:33:24;8.40;99.90
31991;DHT22;18508;49.386;8.370;2022-11-12T14:35:57;8.30;99.90
31991;DHT22;18508;49.386;8.370;2022-11-12T14:38:29;8.30;99.90
31991;DHT22;18508;49.386;8.370;2022-11-12T14:41:02;8.30;99.90
31991;DHT22;18508;49.386;8.370;2022-11-12T14:43:35;8.30;99.90
31991;DHT22;18508;49.386;8.370;2022-11-12T14:46:06;8.20;99.90
31991;DHT22;18508;49.386;8.370;2022-11-12T14:48:37;8.10;99.90
31991;DHT22;18508;49.386;8.370;2022-11-12T14:51:13;8.10;99.90
31991;DHT22;18508;49.386;8.370;2022-11-12T14:53:45;8.00;99.90
31991;DHT22;18508;49.386;8.370;2022-11-12T14:56:20;8.00;99.90
31991;DHT22;18508;49.386;8.370;2022-11-12T14:58:54;8.00;99.90
31991;DHT22;18508;49.386;8.370;2022-11-12T15:01:25;8.00;99.90
31991;DHT22;18508;49.386;8.370;2022-11-12T15:04:17;8.00;99.90
31991;DHT22;18508;49.386;8.370;2022-11-12T15:06:51;8.00;99.90
31991;DHT22;18508;49.386;8.370;2022-11-12T15:09:32;8.00;99.90
31991;DHT22;18508;49.386;8.370;2022-11-12T15:12:04;8.00;99.90
31991;DHT22;18508;49.386;8.370;2022-11-12T15:14:38;8.00;99.90
31991;DHT22;18508;49.386;8.370;2022-11-12T15:17:06;7.90;99.90
31991;DHT22;18508;49.386;8.370;2022-11-12T15:19:45;7.90;99.90
31991;DHT22;18508;49.386;8.370;2022-11-12T15:22:19;7.90;99.90
31991;DHT22;18508;49.386;8.370;2022-11-12T15:24:48;7.80;99.90
31991;DHT22;18508;49.386;8.370;2022-11-12T15:27:32;7.80;99.90
31991;DHT22;18508;49.386;8.370;2022-11-12T15:30:14;7.80;99.90
31991;DHT22;18508;49.386;8.370;2022-11-12T15:32:45;7.80;99.90
31991;DHT22;18508;49.386;8.370;2022-11-12T15:35:33;7.80;99.90
31991;DHT22;18508;49.386;8.370;2022-11-12T15:38:05;7.70;99.90
31991;DHT22;18508;49.386;8.370;2022-11-12T15:40:41;7.80;99.90
31991;DHT22;18508;49.386;8.370;2022-11-12T15:43:15;7.80;99.90
31991;DHT22;18508;49.386;8.370;2022-11-12T15:45:48;7.80;99.90
31991;DHT22;18508;49.386;8.370;2022-11-12T15:48:17;7.80;99.90
31991;DHT22;18508;49.386;8.370;2022-11-12T15:50:46;7.80;99.90
31991;DHT22;18508;49.386;8.370;2022-11-12T15:53:15;7.70;99.90
31991;DHT22;18508;49.386;8.370;2022-11-12T15:55:46;7.70;99.90
31991;DHT22;18508;49.386;8.370;2022-11-12T15:58:23;7.70;99.90
31991;DHT22;18508;49.386;8.370;2022-11-12T16:00:58;7.70;99.90
31991;DHT22;18508;49.386;8.370;2022-11-12T16:03:27;7.70;99.90
31991;DHT22;18508;49.386;8.370;2022-11-12T16:06:01;7.60;99.90
31991;DHT22;18508;49.386;8.370;2022-11-12T16:08:35;7.50;99.90
31991;DHT22;18508;49.386;8.370;2022-11-12T16:11:04;7.60;99.90
31991;DHT22;18508;49.386;8.370;2022-11-12T16:13:56;7.60;99.90
31991;DHT22;18508;49.386;8.370;2022-11-12T16:16:28;7.50;99.90
31991;DHT22;18508;49.386;8.370;2022-11-12T16:18:58;7.50;99.90
31991;DHT22;18508;49.386;8.370;2022-11-12T16:21:29;7.50;99.90
31991;DHT22;18508;49.386;8.370;2022-11-12T16:23:58;7.40;99.90
31991;DHT22;18508;49.386;8.370;2022-11-12T16:26:30;7.40;99.90
31991;DHT22;18508;49.386;8.370;2022-11-12T16:29:11;7.40;99.90
31991;DHT22;18508;49.386;8.370;2022-11-12T16:31:45;7.40;99.90
31991;DHT22;18508;49.386;8.370;2022-11-12T16:34:14;7.30;99.90
31991;DHT22;18508;49.386;8.370;2022-11-12T16:36:44;7.40;99.90
31991;DHT22;18508;49.386;8.370;2022-11-12T16:39:16;7.40;99.90
31991;DHT22;18508;49.386;8.370;2022-11-12T16:41:52;7.40;99.90
31991;DHT22;18508;49.386;8.370;2022-11-12T16:44:22;7.30;99.90
31991;DHT22;18508;49.386;8.370;2022-11-12T16:46:51;7.30;99.90
31991;DHT22;18508;49.386;8.370;2022-11-12T16:49:21;7.30;99.90
31991;DHT22;18508;49.386;8.370;2022-11-12T16:51:51;7.30;99.90
31991;DHT22;18508;49.386;8.370;2022-11-12T16:54:24;7.30;99.90
31991;DHT22;18508;49.386;8.370;2022-11-12T16:56:53;7.30;99.90
31991;DHT22;18508;49.386;8.370;2022-11-12T16:59:23;7.30;99.90
31991;DHT22;18508;49.386;8.370;2022-11-12T17:01:54;7.30;99.90
31991;DHT22;18508;49.386;8.370;2022-11-12T17:04:23;7.40;99.90
31991;DHT22;18508;49.386;8.370;2022-11-12T17:06:59;7.40;99.90
31991;DHT22;18508;49.386;8.370;2022-11-12T17:09:30;7.40;99.90
31991;DHT22;18508;49.386;8.370;2022-11-12T17:12:07;7.40;99.90
31991;DHT22;18508;49.386;8.370;2022-11-12T17:14:40;7.30;99.90
31991;DHT22;18508;49.386;8.370;2022-11-12T17:17:11;7.30;99.90